Time;durP1;ratioP1;P1;durP2;ratioP2;P2;SDS_P1;SDS_P2;PMS_P1;PMS_P2;Temp;Humidity;BMP_temperature;BMP_pressure;BME280_temperature;BME280_humidity;BME280_pressure;Samples;Min_cycle;Max_cycle;Signal;HPM_P1;HPM_P2
2023/03/26 00:01:00;;;;;;;11.80;2.20;;;;;;;;;;5044795;28;20548;-64
2023/03/26 00:03:27;;;;;;;11.68;1.60;;;;;;;;;;5044411;28;20045;-63
2023/03/26 00:06:02;;;;;;;9.50;1.85;;;;;;;;;;5044164;28;20457;-66
2023/03/26 00:08:29;;;;;;;8.20;1.30;;;;;;;;;;5043717;28;20056;-66
2023/03/26 00:10:55;;;;;;;12.50;1.42;;;;;;;;;;5044349;28;20518;-65
2023/03/26 00:13:21;;;;;;;10.32;1.90;;;;;;;;;;5043915;28;20064;-64
2023/03/26 00:15:48;;;;;;;18.77;2.17;;;;;;;;;;5044245;28;20049;-65
2023/03/26 00:18:14;;;;;;;16.20;1.90;;;;;;;;;;5044051;28;20262;-65
2023/03/26 00:20:40;;;;;;;9.85;1.42;;;;;;;;;;5042504;28;20044;-66
2023/03/26 00:23:13;;;;;;;14.02;2.28;;;;;;;;;;5026149;28;20049;-64
2023/03/26 00:25:52;;;;;;;8.43;1.40;;;;;;;;;;5041599;28;20072;-65
2023/03/26 00:28:22;;;;;;;13.18;1.85;;;;;;;;;;5044296;28;20115;-66
2023/03/26 00:30:49;;;;;;;16.02;1.77;;;;;;;;;;5043789;28;20033;-66
2023/03/26 00:33:16;;;;;;;9.45;1.40;;;;;;;;;;5044073;28;20045;-66
2023/03/26 00:35:45;;;;;;;10.55;1.40;;;;;;;;;;5043728;28;20041;-65
2023/03/26 00:38:18;;;;;;;13.95;2.03;;;;;;;;;;5009585;28;20299;-66
2023/03/26 00:40:55;;;;;;;8.90;1.40;;;;;;;;;;5043983;28;20643;-65
2023/03/26 00:43:32;;;;;;;9.02;1.52;;;;;;;;;;5043932;28;20053;-59
2023/03/26 00:46:08;;;;;;;13.13;2.13;;;;;;;;;;5043825;28;20041;-66
2023/03/26 00:48:53;;;;;;;14.90;1.90;;;;;;;;;;5043823;28;20112;-67
2023/03/26 00:51:30;;;;;;;14.05;1.75;;;;;;;;;;5041537;28;20476;-66
2023/03/26 00:54:06;;;;;;;9.27;1.73;;;;;;;;;;5043827;28;20521;-67
2023/03/26 00:56:37;;;;;;;11.07;1.50;;;;;;;;;;5043644;28;20056;-66
2023/03/26 00:59:10;;;;;;;10.15;1.80;;;;;;;;;;5043105;28;20319;-67
2023/03/26 01:01:46;;;;;;;9.02;2.08;;;;;;;;;;5043750;28;20049;-67
2023/03/26 01:04:33;;;;;;;7.53;1.65;;;;;;;;;;5042616;28;20044;-66
2023/03/26 01:07:15;;;;;;;8.30;1.75;;;;;;;;;;5043087;28;20045;-68
2023/03/26 01:09:49;;;;;;;8.40;1.75;;;;;;;;;;5107456;22;20849;-66
2023/03/26 01:12:17;;;;;;;11.88;2.33;;;;;;;;;;5039379;28;20441;-66
2023/03/26 01:14:50;;;;;;;12.02;1.70;;;;;;;;;;5041915;28;20483;-66
2023/03/26 01:17:20;;;;;;;8.65;1.65;;;;;;;;;;5042439;28;20616;-65
2023/03/26 01:19:46;;;;;;;11.10;2.10;;;;;;;;;;5041681;28;20052;-64
2023/03/26 01:22:21;;;;;;;5.30;1.23;;;;;;;;;;5042724;28;20048;-66
2023/03/26 01:24:52;;;;;;;10.20;1.25;;;;;;;;;;5042487;28;20041;-66
2023/03/26 01:27:25;;;;;;;6.43;1.30;;;;;;;;;;5041850;28;20077;-65
2023/03/26 01:29:54;;;;;;;14.43;1.80;;;;;;;;;;5042542;28;20111;-65
2023/03/26 01:32:36;;;;;;;11.35;1.38;;;;;;;;;;5042957;28;20085;-65
2023/03/26 01:35:11;;;;;;;10.65;1.35;;;;;;;;;;5041980;28;20041;-65
2023/03/26 01:37:38;;;;;;;10.63;1.77;;;;;;;;;;5042335;28;20044;-63
2023/03/26 01:40:08;;;;;;;8.38;1.60;;;;;;;;;;5042754;28;20504;-65
2023/03/26 01:42:39;;;;;;;9.35;1.55;;;;;;;;;;5043134;28;20048;-65
2023/03/26 01:45:05;;;;;;;9.68;1.40;;;;;;;;;;5042009;28;20142;-65
2023/03/26 01:47:35;;;;;;;10.85;1.63;;;;;;;;;;5042750;28;20107;-66
2023/03/26 01:50:05;;;;;;;9.48;1.35;;;;;;;;;;5041236;28;20037;-66
2023/03/26 01:52:34;;;;;;;11.43;1.65;;;;;;;;;;5041390;28;20049;-66
2023/03/26 01:55:10;;;;;;;8.55;2.00;;;;;;;;;;5042456;28;20102;-66
2023/03/26 01:57:46;;;;;;;12.85;1.50;;;;;;;;;;5042283;28;20044;-66
2023/03/26 02:00:29;;;;;;;9.07;1.45;;;;;;;;;;5041288;28;20829;-65
2023/03/26 02:03:16;;;;;;;10.27;1.05;;;;;;;;;;5040664;28;20521;-65
2023/03/26 02:06:02;;;;;;;8.13;1.23;;;;;;;;;;5040645;28;20049;-66
2023/03/26 02:08:35;;;;;;;5.50;1.25;;;;;;;;;;5041587;28;20049;-65
2023/03/26 02:11:20;;;;;;;11.45;1.58;;;;;;;;;;5041903;28;20048;-65
2023/03/26 02:14:00;;;;;;;11.35;1.35;;;;;;;;;;5040451;28;20103;-65
2023/03/26 02:16:37;;;;;;;6.80;1.48;;;;;;;;;;5037415;28;20049;-65
2023/03/26 02:19:14;;;;;;;12.65;1.58;;;;;;;;;;5037768;28;20390;-65
2023/03/26 02:21:40;;;;;;;12.45;1.60;;;;;;;;;;5041306;28;20036;-65
2023/03/26 02:24:07;;;;;;;14.50;1.80;;;;;;;;;;5041744;28;20049;-63
2023/03/26 02:26:34;;;;;;;12.02;1.38;;;;;;;;;;5041965;28;20041;-66
2023/03/26 02:29:07;;;;;;;11.20;2.25;;;;;;;;;;5040565;28;20470;-66
2023/03/26 02:31:39;;;;;;;11.13;1.50;;;;;;;;;;5040555;28;20123;-66
2023/03/26 02:34:06;;;;;;;13.02;1.80;;;;;;;;;;5040910;28;20060;-66
2023/03/26 02:36:41;;;;;;;12.77;2.45;;;;;;;;;;5041383;28;20106;-66
2023/03/26 02:39:13;;;;;;;11.43;1.67;;;;;;;;;;5041232;28;20041;-66
2023/03/26 02:41:39;;;;;;;14.95;3.42;;;;;;;;;;5041996;28;20126;-66
2023/03/26 02:44:09;;;;;;;13.93;1.35;;;;;;;;;;5044458;28;20342;-65
2023/03/26 02:46:44;;;;;;;9.95;1.73;;;;;;;;;;5044838;28;20107;-66
2023/03/26 02:49:19;;;;;;;5.35;1.20;;;;;;;;;;5044488;28;20088;-66
2023/03/26 02:51:49;;;;;;;13.05;2.05;;;;;;;;;;5045667;28;20063;-66
2023/03/26 02:54:15;;;;;;;12.98;1.27;;;;;;;;;;5044762;28;20052;-66
2023/03/26 02:56:41;;;;;;;9.73;1.63;;;;;;;;;;5041119;28;20040;-66
2023/03/26 02:59:08;;;;;;;11.27;1.63;;;;;;;;;;5044959;28;20037;-66
2023/03/26 03:01:41;;;;;;;7.00;1.17;;;;;;;;;;5045051;28;20048;-67
2023/03/26 03:04:11;;;;;;;8.40;1.58;;;;;;;;;;5043870;28;20529;-66
2023/03/26 03:06:44;;;;;;;7.15;1.70;;;;;;;;;;5044425;28;20124;-67
2023/03/26 03:09:21;;;;;;;11.75;1.67;;;;;;;;;;5041279;28;20120;-67
2023/03/26 03:12:00;;;;;;;10.77;1.65;;;;;;;;;;5023308;28;20049;-66
2023/03/26 03:14:30;;;;;;;8.35;1.50;;;;;;;;;;5023941;28;20053;-66
2023/03/26 03:17:03;;;;;;;11.98;1.33;;;;;;;;;;5024611;28;20072;-65
2023/03/26 03:19:39;;;;;;;8.27;1.52;;;;;;;;;;5020968;28;20098;-66
2023/03/26 03:22:14;;;;;;;9.95;1.30;;;;;;;;;;5021595;28;20053;-66
2023/03/26 03:24:46;;;;;;;16.20;3.38;;;;;;;;;;5022256;28;20045;-66
2023/03/26 03:27:20;;;;;;;11.98;2.13;;;;;;;;;;5024727;28;20080;-66
2023/03/26 03:29:52;;;;;;;11.00;1.50;;;;;;;;;;5021230;28;20038;-66
2023/03/26 03:32:26;;;;;;;13.35;1.88;;;;;;;;;;5023252;28;20443;-66
2023/03/26 03:35:02;;;;;;;17.77;2.00;;;;;;;;;;5024351;28;20072;-67
2023/03/26 03:37:32;;;;;;;14.02;1.45;;;;;;;;;;5020765;28;20041;-66
2023/03/26 03:43:00;;;;;;;8.85;1.70;;;;;;;;;;5022956;28;20042;-67
2023/03/26 03:45:28;;;;;;;11.02;1.90;;;;;;;;;;5024362;28;20490;-66
2023/03/26 03:47:54;;;;;;;11.23;1.83;;;;;;;;;;5024623;28;20510;-66
2023/03/26 03:50:27;;;;;;;12.00;1.70;;;;;;;;;;5023116;28;20045;-66
2023/03/26 03:52:58;;;;;;;8.20;1.67;;;;;;;;;;5023595;28;20045;-65
2023/03/26 03:55:30;;;;;;;13.60;1.60;;;;;;;;;;5025057;28;20045;-67
2023/03/26 03:57:58;;;;;;;11.73;1.38;;;;;;;;;;5023947;28;20438;-65
2023/03/26 04:00:25;;;;;;;11.00;1.42;;;;;;;;;;5024008;28;20055;-65
2023/03/26 04:02:58;;;;;;;12.77;2.05;;;;;;;;;;5024186;28;20776;-66
2023/03/26 04:05:27;;;;;;;12.52;1.30;;;;;;;;;;5019571;28;20052;-65
2023/03/26 04:07:53;;;;;;;13.40;2.25;;;;;;;;;;5023999;28;20064;-66
2023/03/26 04:10:26;;;;;;;8.70;1.38;;;;;;;;;;5032008;28;20507;-67
2023/03/26 04:12:57;;;;;;;10.48;1.45;;;;;;;;;;5044126;28;20521;-65
2023/03/26 04:15:30;;;;;;;18.42;1.67;;;;;;;;;;5044056;28;20045;-66
2023/03/26 04:18:09;;;;;;;7.78;1.40;;;;;;;;;;5043190;28;20418;-66
2023/03/26 04:20:48;;;;;;;20.13;2.03;;;;;;;;;;5042523;28;20033;-66
2023/03/26 04:23:18;;;;;;;15.15;1.98;;;;;;;;;;5043734;28;20118;-66
2023/03/26 04:25:53;;;;;;;8.73;1.92;;;;;;;;;;5043815;28;20041;-66
2023/03/26 04:28:31;;;;;;;10.20;3.28;;;;;;;;;;5042817;28;20048;-67
2023/03/26 04:31:10;;;;;;;5.75;1.40;;;;;;;;;;5025163;28;20449;-67
2023/03/26 04:33:40;;;;;;;14.68;1.88;;;;;;;;;;5042352;28;20068;-66
2023/03/26 04:36:12;;;;;;;8.50;1.20;;;;;;;;;;5043407;28;20052;-67
2023/03/26 04:38:43;;;;;;;8.25;1.13;;;;;;;;;;5043236;28;20552;-66
2023/03/26 04:41:11;;;;;;;11.98;1.38;;;;;;;;;;5043273;28;20041;-67
2023/03/26 04:43:49;;;;;;;7.85;1.65;;;;;;;;;;5024776;28;20131;-66
2023/03/26 04:46:25;;;;;;;7.13;1.33;;;;;;;;;;5043017;28;20037;-67
2023/03/26 04:48:55;;;;;;;7.78;1.20;;;;;;;;;;5038834;28;20451;-59
2023/03/26 04:51:40;;;;;;;6.53;1.10;;;;;;;;;;5042420;28;20048;-67
2023/03/26 04:54:12;;;;;;;11.02;1.65;;;;;;;;;;5043247;28;20053;-65
2023/03/26 04:56:53;;;;;;;8.50;2.35;;;;;;;;;;5043282;28;20045;-67
2023/03/26 04:59:29;;;;;;;9.73;1.85;;;;;;;;;;5042244;28;20040;-66
2023/03/26 05:01:59;;;;;;;10.13;2.15;;;;;;;;;;5042747;28;20516;-66
2023/03/26 05:04:35;;;;;;;10.20;1.80;;;;;;;;;;5042194;28;20167;-58
2023/03/26 05:07:13;;;;;;;7.15;1.42;;;;;;;;;;5041549;28;20120;-66
2023/03/26 05:09:43;;;;;;;14.50;1.35;;;;;;;;;;5038953;28;20510;-66
2023/03/26 05:12:09;;;;;;;16.33;2.80;;;;;;;;;;5041572;28;20555;-67
2023/03/26 05:14:42;;;;;;;13.25;1.73;;;;;;;;;;5042921;28;20057;-68
2023/03/26 05:17:20;;;;;;;6.10;1.70;;;;;;;;;;5042831;28;20052;-67
2023/03/26 05:19:56;;;;;;;13.07;1.95;;;;;;;;;;5041153;28;20043;-67
2023/03/26 05:22:26;;;;;;;14.45;1.85;;;;;;;;;;5041682;28;20079;-66
2023/03/26 05:24:59;;;;;;;8.00;1.98;;;;;;;;;;5043476;28;20068;-66
2023/03/26 05:27:46;;;;;;;12.18;2.15;;;;;;;;;;5041722;28;20086;-66
2023/03/26 05:30:16;;;;;;;12.80;2.03;;;;;;;;;;5042255;28;20568;-65
2023/03/26 05:32:50;;;;;;;11.45;2.05;;;;;;;;;;5041772;28;20075;-65
2023/03/26 05:35:20;;;;;;;10.52;1.88;;;;;;;;;;5041043;28;20044;-63
2023/03/26 05:37:53;;;;;;;7.90;1.90;;;;;;;;;;5042172;28;20053;-65
2023/03/26 05:40:22;;;;;;;11.75;2.15;;;;;;;;;;5042682;28;20045;-64
2023/03/26 05:42:50;;;;;;;11.00;3.23;;;;;;;;;;5039349;28;20103;-63
2023/03/26 05:45:21;;;;;;;14.05;2.35;;;;;;;;;;5041970;28;20479;-64
2023/03/26 05:47:50;;;;;;;11.13;2.40;;;;;;;;;;5041968;28;20033;-63
2023/03/26 05:50:23;;;;;;;8.13;1.98;;;;;;;;;;5041061;28;20052;-66
2023/03/26 05:52:59;;;;;;;5.85;1.88;;;;;;;;;;5041026;28;20494;-66
2023/03/26 05:55:35;;;;;;;9.13;2.38;;;;;;;;;;5041973;28;20049;-66
2023/03/26 05:58:12;;;;;;;21.33;2.53;;;;;;;;;;5042030;28;20175;-65
2023/03/26 06:00:47;;;;;;;9.25;2.03;;;;;;;;;;5042566;28;20029;-66
2023/03/26 06:03:21;;;;;;;9.77;2.30;;;;;;;;;;5041500;28;20037;-65
2023/03/26 06:05:51;;;;;;;13.93;2.03;;;;;;;;;;5041048;28;20131;-65
2023/03/26 06:08:19;;;;;;;11.32;2.38;;;;;;;;;;5041255;28;20052;-66
2023/03/26 06:10:45;;;;;;;9.98;2.53;;;;;;;;;;5042206;28;20103;-66
2023/03/26 06:13:20;;;;;;;9.75;2.25;;;;;;;;;;5042052;28;20131;-64
2023/03/26 06:15:57;;;;;;;13.88;2.10;;;;;;;;;;5042579;28;20044;-66
2023/03/26 06:18:26;;;;;;;9.40;2.28;;;;;;;;;;5039906;28;20049;-65
2023/03/26 06:20:53;;;;;;;9.93;2.72;;;;;;;;;;5042599;28;20079;-65
2023/03/26 06:23:19;;;;;;;8.50;2.00;;;;;;;;;;5039119;28;20037;-65
2023/03/26 06:25:45;;;;;;;10.43;2.10;;;;;;;;;;5042118;28;20037;-64
2023/03/26 06:28:12;;;;;;;11.98;2.08;;;;;;;;;;5042026;28;20068;-65
2023/03/26 06:30:39;;;;;;;6.85;2.45;;;;;;;;;;5042279;28;20044;-64
2023/03/26 06:33:05;;;;;;;9.50;1.90;;;;;;;;;;5041842;28;20044;-63
2023/03/26 06:35:31;;;;;;;10.25;2.22;;;;;;;;;;5041944;28;20087;-65
2023/03/26 06:38:06;;;;;;;11.73;2.40;;;;;;;;;;5042148;28;20055;-65
2023/03/26 06:40:35;;;;;;;11.77;2.25;;;;;;;;;;5042118;28;20060;-65
2023/03/26 06:43:09;;;;;;;16.40;2.10;;;;;;;;;;5042018;28;20534;-65
2023/03/26 06:45:45;;;;;;;16.95;3.17;;;;;;;;;;5041814;28;20037;-65
2023/03/26 06:48:15;;;;;;;17.65;2.45;;;;;;;;;;5040265;28;20654;-65
2023/03/26 06:50:48;;;;;;;20.38;2.13;;;;;;;;;;5041766;28;20041;-64
2023/03/26 06:53:24;;;;;;;14.95;2.55;;;;;;;;;;5041486;28;20075;-66
2023/03/26 06:55:55;;;;;;;13.23;2.35;;;;;;;;;;5042317;28;20071;-67
2023/03/26 06:58:21;;;;;;;17.65;2.03;;;;;;;;;;5040871;28;20422;-67
2023/03/26 07:00:47;;;;;;;14.73;1.85;;;;;;;;;;5039920;28;20045;-67
2023/03/26 07:03:16;;;;;;;18.48;2.63;;;;;;;;;;5040107;28;20094;-67
2023/03/26 07:05:56;;;;;;;13.52;3.70;;;;;;;;;;5042243;28;20139;-68
2023/03/26 07:08:22;;;;;;;14.30;2.35;;;;;;;;;;5042715;28;20049;-68
2023/03/26 07:10:48;;;;;;;18.75;2.55;;;;;;;;;;5018709;28;20505;-67
2023/03/26 07:13:14;;;;;;;17.90;1.90;;;;;;;;;;5022961;28;20038;-68
2023/03/26 07:15:41;;;;;;;24.20;2.00;;;;;;;;;;5023110;28;20049;-67
2023/03/26 07:18:07;;;;;;;13.95;2.58;;;;;;;;;;5021858;28;20136;-64
2023/03/26 07:20:33;;;;;;;28.88;2.70;;;;;;;;;;5023037;28;20139;-67
2023/03/26 07:23:00;;;;;;;10.93;2.63;;;;;;;;;;5022766;28;20061;-64
2023/03/26 07:25:26;;;;;;;13.82;2.08;;;;;;;;;;5021639;28;20731;-64
2023/03/26 07:27:57;;;;;;;15.07;2.13;;;;;;;;;;5023071;28;20046;-64
2023/03/26 07:30:32;;;;;;;13.30;2.17;;;;;;;;;;5026715;28;20540;-63
2023/03/26 07:33:03;;;;;;;18.65;1.67;;;;;;;;;;5008970;28;20135;-63
2023/03/26 07:35:29;;;;;;;12.65;2.78;;;;;;;;;;5026187;28;20044;-64
2023/03/26 07:38:01;;;;;;;20.52;2.55;;;;;;;;;;5026377;28;20045;-62
2023/03/26 07:40:43;;;;;;;22.13;3.90;;;;;;;;;;5025789;28;20080;-64
2023/03/26 07:43:17;;;;;;;20.30;2.67;;;;;;;;;;5025821;28;20045;-62
2023/03/26 07:45:44;;;;;;;16.67;2.58;;;;;;;;;;5024736;28;20037;-62
2023/03/26 07:48:15;;;;;;;17.20;2.55;;;;;;;;;;5026908;28;20072;-59
2023/03/26 07:50:42;;;;;;;16.25;1.90;;;;;;;;;;5025257;28;20049;-62
2023/03/26 07:53:08;;;;;;;18.75;2.90;;;;;;;;;;5023041;28;20046;-63
2023/03/26 07:55:38;;;;;;;7.50;1.55;;;;;;;;;;5021452;28;20118;-64
2023/03/26 07:58:16;;;;;;;19.58;1.73;;;;;;;;;;5025006;28;20674;-55
2023/03/26 08:00:48;;;;;;;25.80;5.78;;;;;;;;;;5024735;28;20514;-63
2023/03/26 08:03:14;;;;;;;14.63;3.40;;;;;;;;;;5025101;28;20039;-60
2023/03/26 08:05:45;;;;;;;13.65;2.22;;;;;;;;;;5025563;28;20423;-61
2023/03/26 08:08:19;;;;;;;13.73;3.45;;;;;;;;;;5025436;28;20041;-61
2023/03/26 08:10:45;;;;;;;13.63;3.03;;;;;;;;;;5036325;28;20140;-61
2023/03/26 08:13:31;;;;;;;16.98;4.85;;;;;;;;;;5044370;28;20095;-61
2023/03/26 08:16:05;;;;;;;14.15;3.97;;;;;;;;;;5040388;28;20049;-61
2023/03/26 08:18:35;;;;;;;18.70;3.33;;;;;;;;;;5044168;28;20044;-61
2023/03/26 08:21:05;;;;;;;13.32;3.72;;;;;;;;;;5045148;28;20045;-60
2023/03/26 08:23:36;;;;;;;26.10;10.57;;;;;;;;;;5044732;28;20076;-61
2023/03/26 08:26:13;;;;;;;21.65;5.30;;;;;;;;;;5045013;28;20711;-62
2023/03/26 08:28:39;;;;;;;26.00;9.32;;;;;;;;;;5042311;28;20048;-61
2023/03/26 08:31:08;;;;;;;16.70;3.25;;;;;;;;;;5044582;28;20498;-62
2023/03/26 08:33:35;;;;;;;23.90;6.45;;;;;;;;;;5040667;28;20045;-62
2023/03/26 08:36:01;;;;;;;16.67;1.90;;;;;;;;;;5039070;28;20549;-62
2023/03/26 08:38:27;;;;;;;28.25;4.10;;;;;;;;;;5039410;28;20149;-60
2023/03/26 08:41:04;;;;;;;19.63;6.25;;;;;;;;;;5041627;28;20048;-61
2023/03/26 08:43:30;;;;;;;21.20;3.85;;;;;;;;;;5044847;28;20402;-61
2023/03/26 08:46:06;;;;;;;19.42;3.78;;;;;;;;;;5044813;28;20049;-60
2023/03/26 08:48:45;;;;;;;27.80;6.10;;;;;;;;;;5030148;28;20057;-61
2023/03/26 08:51:11;;;;;;;;;;;;;;;;;;5032884;28;20530;-61
2023/03/26 08:53:41;;;;;;;31.80;6.50;;;;;;;;;;5044652;28;20448;-61
2023/03/26 08:56:10;;;;;;;20.70;4.63;;;;;;;;;;5041445;28;20045;-62
2023/03/26 08:58:40;;;;;;;24.02;3.17;;;;;;;;;;5042410;28;20076;-64
2023/03/26 09:01:09;;;;;;;131.32;45.13;;;;;;;;;;5042110;28;20394;-63
2023/03/26 09:03:43;;;;;;;22.52;8.32;;;;;;;;;;5036903;28;20029;-61
2023/03/26 09:06:15;;;;;;;13.07;2.88;;;;;;;;;;5040355;28;20044;-60
2023/03/26 09:08:54;;;;;;;10.43;3.00;;;;;;;;;;5041584;28;20069;-60
2023/03/26 09:11:32;;;;;;;11.07;1.80;;;;;;;;;;5039029;28;20076;-60
2023/03/26 09:14:04;;;;;;;15.27;2.70;;;;;;;;;;5041443;28;20490;-60
2023/03/26 09:16:50;;;;;;;17.30;2.42;;;;;;;;;;5037506;28;20077;-62
2023/03/26 09:19:30;;;;;;;18.75;2.20;;;;;;;;;;5037518;28;20051;-62
2023/03/26 09:22:08;;;;;;;15.20;4.18;;;;;;;;;;5040279;28;20114;-62
2023/03/26 09:24:59;;;;;;;14.90;1.80;;;;;;;;;;5032939;28;20501;-63
2023/03/26 09:27:39;;;;;;;17.17;1.95;;;;;;;;;;5040087;28;20048;-63
2023/03/26 09:30:19;;;;;;;15.68;2.00;;;;;;;;;;5043337;28;20102;-61
2023/03/26 09:33:04;;;;;;;14.32;2.13;;;;;;;;;;5042602;28;20075;-61
2023/03/26 09:35:45;;;;;;;9.55;2.97;;;;;;;;;;5042497;28;20044;-62
2023/03/26 09:38:11;;;;;;;18.58;5.78;;;;;;;;;;5042977;28;20045;-62
2023/03/26 09:40:42;;;;;;;19.70;4.20;;;;;;;;;;5043400;28;21965;-61
2023/03/26 09:43:26;;;;;;;16.25;3.17;;;;;;;;;;5043420;28;20052;-62
2023/03/26 09:46:03;;;;;;;14.13;2.97;;;;;;;;;;5044319;28;20045;-62
2023/03/26 09:48:30;;;;;;;15.95;2.88;;;;;;;;;;5038733;28;20044;-63
2023/03/26 09:51:16;;;;;;;14.35;1.50;;;;;;;;;;5042251;28;20071;-63
2023/03/26 09:53:50;;;;;;;14.18;3.05;;;;;;;;;;5039335;28;20094;-62
2023/03/26 09:56:25;;;;;;;10.20;1.15;;;;;;;;;;5039243;28;20087;-61
2023/03/26 09:58:58;;;;;;;12.27;2.22;;;;;;;;;;5043237;28;20040;-61
2023/03/26 10:01:36;;;;;;;19.17;1.90;;;;;;;;;;5043072;28;20068;-61
2023/03/26 10:04:08;;;;;;;12.32;1.80;;;;;;;;;;5042992;28;20041;-62
2023/03/26 10:06:57;;;;;;;12.10;2.67;;;;;;;;;;5038935;28;20045;-62
2023/03/26 10:09:23;;;;;;;20.45;3.42;;;;;;;;;;5021264;28;20072;-61
2023/03/26 10:11:50;;;;;;;15.63;1.83;;;;;;;;;;5038193;28;20040;-61
2023/03/26 10:14:20;;;;;;;9.45;3.00;;;;;;;;;;5039627;28;20064;-61
2023/03/26 10:16:50;;;;;;;10.00;1.02;;;;;;;;;;5037694;28;20048;-61
2023/03/26 10:19:23;;;;;;;10.98;3.00;;;;;;;;;;5038488;28;20067;-62
2023/03/26 10:21:58;;;;;;;12.20;2.03;;;;;;;;;;5042652;28;20041;-61
2023/03/26 10:24:27;;;;;;;11.32;2.65;;;;;;;;;;5042517;28;20049;-61
2023/03/26 10:26:59;;;;;;;10.20;1.38;;;;;;;;;;5043559;28;20041;-61
2023/03/26 10:29:36;;;;;;;12.80;2.00;;;;;;;;;;5041770;28;20878;-61
2023/03/26 10:32:20;;;;;;;11.70;1.17;;;;;;;;;;5040613;28;20033;-61
2023/03/26 10:35:04;;;;;;;9.32;1.60;;;;;;;;;;5040675;28;20095;-61
2023/03/26 10:37:44;;;;;;;20.35;5.07;;;;;;;;;;5042836;28;20051;-58
2023/03/26 10:40:29;;;;;;;15.90;2.05;;;;;;;;;;5037042;28;20068;-62
2023/03/26 10:43:08;;;;;;;18.88;2.78;;;;;;;;;;5041445;28;20076;-54
2023/03/26 10:45:53;;;;;;;10.13;3.17;;;;;;;;;;5040303;28;20041;-61
2023/03/26 10:48:23;;;;;;;14.80;1.67;;;;;;;;;;5040065;28;20091;-61
2023/03/26 10:50:52;;;;;;;11.15;1.33;;;;;;;;;;5041431;28;20390;-61
2023/03/26 10:53:42;;;;;;;10.75;1.35;;;;;;;;;;5042944;28;20044;-61
2023/03/26 10:56:21;;;;;;;12.20;2.22;;;;;;;;;;5043029;28;20437;-60
2023/03/26 10:58:47;;;;;;;10.88;2.03;;;;;;;;;;5043108;28;20079;-62
2023/03/26 11:01:20;;;;;;;6.25;1.23;;;;;;;;;;5025052;28;20130;-62
2023/03/26 11:03:50;;;;;;;9.23;1.10;;;;;;;;;;5037491;28;20222;-62
2023/03/26 11:06:18;;;;;;;10.60;1.58;;;;;;;;;;5046411;28;20056;-61
2023/03/26 11:08:53;;;;;;;13.82;1.45;;;;;;;;;;5047137;28;20049;-61
2023/03/26 11:11:20;;;;;;;11.45;1.10;;;;;;;;;;5046302;28;20049;-61
2023/03/26 11:13:54;;;;;;;13.38;1.60;;;;;;;;;;5047341;28;20053;-61
2023/03/26 11:16:27;;;;;;;18.58;2.38;;;;;;;;;;5046746;28;20190;-60
2023/03/26 11:18:56;;;;;;;11.35;1.92;;;;;;;;;;5042689;28;20140;-61
2023/03/26 11:21:25;;;;;;;15.13;1.92;;;;;;;;;;5046744;28;20069;-58
2023/03/26 11:23:57;;;;;;;14.05;3.00;;;;;;;;;;5038094;28;20041;-57
2023/03/26 11:26:43;;;;;;;13.88;1.50;;;;;;;;;;5046084;28;20122;-58
2023/03/26 11:29:32;;;;;;;17.77;1.80;;;;;;;;;;5034436;28;20033;-57
2023/03/26 11:32:00;;;;;;;14.80;1.58;;;;;;;;;;5002726;28;20049;-54
2023/03/26 11:34:30;;;;;;;12.02;2.30;;;;;;;;;;5044720;28;20051;-54
2023/03/26 11:36:57;;;;;;;17.10;1.90;;;;;;;;;;5045669;28;20397;-53
2023/03/26 11:39:33;;;;;;;19.80;2.22;;;;;;;;;;5045932;28;20052;-55
2023/03/26 11:42:13;;;;;;;14.10;2.17;;;;;;;;;;5045220;28;20041;-50
2023/03/26 11:45:03;;;;;;;13.45;1.83;;;;;;;;;;5046072;28;20049;-57
2023/03/26 11:47:45;;;;;;;14.57;2.58;;;;;;;;;;5045296;28;20110;-60
2023/03/26 11:50:41;;;;;;;12.13;1.60;;;;;;;;;;5044059;28;20080;-54
2023/03/26 15:27:57;;;;;;;7.72;1.02;;;;;;;;;;5111366;27;20110;-57
2023/03/26 15:30:35;;;;;;;11.32;1.00;;;;;;;;;;5114048;28;20404;-57
2023/03/26 15:33:04;;;;;;;;;;;;;;;;;;5121324;28;20481;-57
2023/03/26 15:35:30;;;;;;;10.35;1.10;;;;;;;;;;5119429;27;19916;-58
2023/03/26 15:38:10;;;;;;;10.35;1.08;;;;;;;;;;5111919;28;20048;-58
2023/03/26 15:40:36;;;;;;;12.05;1.55;;;;;;;;;;5104960;28;20051;-57
2023/03/26 15:43:08;;;;;;;14.50;0.90;;;;;;;;;;5110950;28;20154;-57
2023/03/26 15:45:46;;;;;;;10.82;0.88;;;;;;;;;;5123543;27;20101;-58
2023/03/26 15:48:12;;;;;;;9.98;1.15;;;;;;;;;;5090466;28;20493;-57
2023/03/26 15:50:52;;;;;;;15.90;1.58;;;;;;;;;;5104558;28;20042;-56
2023/03/26 15:53:27;;;;;;;13.23;1.75;;;;;;;;;;5097391;28;20044;-57
2023/03/26 15:55:57;;;;;;;11.35;1.52;;;;;;;;;;5101992;28;20036;-56
2023/03/26 15:58:23;;;;;;;8.95;1.00;;;;;;;;;;5100459;28;20044;-57
2023/03/26 16:00:54;;;;;;;8.25;1.52;;;;;;;;;;5102747;28;20032;-57
2023/03/26 16:03:33;;;;;;;7.90;1.23;;;;;;;;;;5102095;28;20113;-56
2023/03/26 16:06:18;;;;;;;7.93;1.33;;;;;;;;;;5101535;28;20488;-57
2023/03/26 16:08:51;;;;;;;10.20;1.25;;;;;;;;;;5093747;28;20035;-57
2023/03/26 16:11:38;;;;;;;9.70;1.05;;;;;;;;;;5104027;28;20044;-58
2023/03/26 16:14:23;;;;;;;10.52;1.58;;;;;;;;;;5104818;28;20493;-57
2023/03/26 16:16:50;;;;;;;7.25;0.90;;;;;;;;;;5096183;28;20076;-58
2023/03/26 16:19:23;;;;;;;8.23;2.15;;;;;;;;;;5124208;27;20082;-59
2023/03/26 16:21:57;;;;;;;11.00;1.65;;;;;;;;;;5124117;27;20049;-57
2023/03/26 16:24:26;;;;;;;12.05;1.17;;;;;;;;;;5124107;28;20054;-58
2023/03/26 16:27:01;;;;;;;8.43;1.15;;;;;;;;;;5123695;28;20063;-58
2023/03/26 16:29:29;;;;;;;6.43;1.00;;;;;;;;;;5120234;28;20463;-58
2023/03/26 16:31:57;;;;;;;11.10;0.95;;;;;;;;;;5118362;28;20044;-57
2023/03/26 16:40:51;;;;;;;12.75;1.00;;;;;;;;;;5096228;28;20086;-58
2023/03/26 16:43:25;;;;;;;10.88;1.08;;;;;;;;;;5077486;28;20043;-58
2023/03/26 16:45:55;;;;;;;9.85;1.60;;;;;;;;;;5090037;28;20044;-58
2023/03/26 16:48:24;;;;;;;13.80;1.27;;;;;;;;;;5088762;28;20048;-57
2023/03/26 16:50:55;;;;;;;11.07;1.15;;;;;;;;;;5089913;28;20048;-58
2023/03/26 16:53:22;;;;;;;5.80;0.85;;;;;;;;;;5079036;28;20048;-58
2023/03/26 16:55:49;;;;;;;7.90;1.15;;;;;;;;;;5089535;28;20052;-58
2023/03/26 16:58:30;;;;;;;6.78;0.90;;;;;;;;;;5089258;28;20040;-57
2023/03/26 17:01:07;;;;;;;10.43;0.98;;;;;;;;;;5088876;28;20075;-57
2023/03/26 17:03:40;;;;;;;14.80;1.67;;;;;;;;;;5078628;28;20059;-57
2023/03/26 17:06:19;;;;;;;14.70;2.45;;;;;;;;;;5088890;28;20055;-57
2023/03/26 17:08:59;;;;;;;7.25;1.10;;;;;;;;;;5079640;28;20044;-58
2023/03/26 17:11:31;;;;;;;8.95;1.50;;;;;;;;;;5087400;28;20048;-57
2023/03/26 17:14:02;;;;;;;11.13;1.00;;;;;;;;;;5088993;28;20129;-58
2023/03/26 17:16:32;;;;;;;17.33;1.33;;;;;;;;;;5088055;28;20070;-57
2023/03/26 17:19:04;;;;;;;14.77;1.80;;;;;;;;;;5075086;28;20560;-57
2023/03/26 17:21:43;;;;;;;11.90;1.30;;;;;;;;;;5088792;28;20078;-57
2023/03/26 17:24:26;;;;;;;20.15;1.55;;;;;;;;;;5087032;28;20101;-57
2023/03/26 17:26:57;;;;;;;13.48;1.52;;;;;;;;;;5088424;28;20056;-57
2023/03/26 17:29:26;;;;;;;9.45;1.58;;;;;;;;;;5088495;28;20040;-57
2023/03/26 17:35:11;;;;;;;10.65;1.20;;;;;;;;;;5087070;28;20101;-57
2023/03/26 17:37:42;;;;;;;8.18;1.45;;;;;;;;;;5087935;28;20113;-59
2023/03/26 17:40:30;;;;;;;10.95;1.20;;;;;;;;;;5088579;28;20036;-57
2023/03/26 17:42:56;;;;;;;;;;;;;;;;;;5082145;28;20043;-57
2023/03/26 17:45:28;;;;;;;10.60;1.00;;;;;;;;;;5087802;28;19924;-57
2023/03/26 17:47:55;;;;;;;6.82;1.55;;;;;;;;;;5087745;28;20493;-57
2023/03/26 17:50:22;;;;;;;12.50;1.38;;;;;;;;;;5087518;28;20074;-58
2023/03/26 17:52:48;;;;;;;11.52;1.30;;;;;;;;;;5088252;28;20078;-57
2023/03/26 17:55:17;;;;;;;7.78;1.23;;;;;;;;;;5088491;28;20047;-57
2023/03/26 17:57:45;;;;;;;16.13;1.73;;;;;;;;;;5087871;28;20389;-57
2023/03/26 18:00:20;;;;;;;5.97;0.88;;;;;;;;;;5085555;28;20046;-57
2023/03/26 18:02:52;;;;;;;14.57;1.27;;;;;;;;;;5087359;28;20439;-58
2023/03/26 18:05:19;;;;;;;10.23;1.10;;;;;;;;;;5087072;28;20127;-57
2023/03/26 18:07:46;;;;;;;10.13;1.05;;;;;;;;;;5084261;28;20044;-58
2023/03/26 18:10:16;;;;;;;9.15;1.45;;;;;;;;;;5085493;28;20051;-57
2023/03/26 18:12:48;;;;;;;16.48;1.27;;;;;;;;;;5085087;28;20101;-57
2023/03/26 18:15:31;;;;;;;10.20;1.77;;;;;;;;;;5084720;28;20056;-57
2023/03/26 18:18:08;;;;;;;12.13;1.05;;;;;;;;;;5088317;28;20381;-58
2023/03/26 18:20:36;;;;;;;11.40;1.42;;;;;;;;;;5104110;28;20118;-57
2023/03/26 18:23:08;;;;;;;11.38;1.05;;;;;;;;;;5105252;28;20059;-57
2023/03/26 18:25:35;;;;;;;8.50;0.98;;;;;;;;;;5104468;28;20050;-57
2023/03/26 18:28:01;;;;;;;4.95;0.85;;;;;;;;;;5089044;28;20044;-57
2023/03/26 18:30:28;;;;;;;12.70;1.33;;;;;;;;;;5084001;28;20044;-57
2023/03/26 18:33:02;;;;;;;16.67;1.45;;;;;;;;;;5065855;28;20052;-57
2023/03/26 18:35:39;;;;;;;6.43;1.00;;;;;;;;;;5084039;28;20044;-58
2023/03/26 18:38:06;;;;;;;8.45;1.05;;;;;;;;;;5084275;28;20397;-57
2023/03/26 18:40:33;;;;;;;7.60;1.27;;;;;;;;;;5083895;28;20040;-57
2023/03/26 18:42:59;;;;;;;12.45;1.67;;;;;;;;;;5084554;28;20044;-57
2023/03/26 18:45:27;;;;;;;10.60;1.60;;;;;;;;;;5083953;28;20044;-58
2023/03/26 18:47:59;;;;;;;14.70;2.13;;;;;;;;;;5083514;28;20054;-57
2023/03/26 18:50:28;;;;;;;11.98;1.20;;;;;;;;;;5082077;28;20077;-58
2023/03/26 18:52:56;;;;;;;9.23;1.58;;;;;;;;;;5084121;28;20054;-57